Time;durP1;ratioP1;P1;durP2;ratioP2;P2;SDS_P1;SDS_P2;PMS_P1;PMS_P2;Temp;Humidity;BMP_temperature;BMP_pressure;BME280_temperature;BME280_humidity;BME280_pressure;Samples;Min_cycle;Max_cycle;Signal;HPM_P1;HPM_P2
2023/04/04 00:01:23;;;;;;;;;;;22.20;58.50;;;;;;5058822;28;19970;-75
2023/04/04 00:03:50;;;;;;;;;;;22.10;59.30;;;;;;5057041;28;19913;-75
2023/04/04 00:06:19;;;;;;;;;;;22.00;59.10;;;;;;5074471;28;19931;-75
2023/04/04 00:08:46;;;;;;;;;;;22.00;59.70;;;;;;5045998;28;20419;-76
2023/04/04 00:11:12;;;;;;;;;;;22.00;59.40;;;;;;5071748;28;19956;-75
2023/04/04 00:13:39;;;;;;;;;;;22.00;58.60;;;;;;5056648;28;19971;-75
2023/04/04 00:16:05;;;;;;;;;;;22.00;59.30;;;;;;5054507;28;19966;-75
2023/04/04 00:18:31;;;;;;;;;;;22.00;59.20;;;;;;5054092;28;19955;-75
2023/04/04 00:20:57;;;;;;;;;;;21.90;59.50;;;;;;5050053;28;19954;-75
2023/04/04 00:23:23;;;;;;;;;;;21.90;59.20;;;;;;5067925;28;19912;-75
2023/04/04 00:25:51;;;;;;;;;;;21.90;59.70;;;;;;5071456;28;19908;-75
2023/04/04 00:28:20;;;;;;;;;;;21.80;59.70;;;;;;5056305;28;19915;-75
2023/04/04 00:30:47;;;;;;;;;;;21.90;59.70;;;;;;5064961;28;19916;-75
2023/04/04 00:33:13;;;;;;;;;;;21.90;59.60;;;;;;5073719;28;19940;-74
2023/04/04 00:35:39;;;;;;;;;;;21.80;57.50;;;;;;5072832;28;20015;-75
2023/04/04 00:38:06;;;;;;;;;;;21.90;59.70;;;;;;5038559;28;19999;-75
2023/04/04 00:40:46;;;;;;;;;;;21.90;59.60;;;;;;5055597;28;19916;-75
2023/04/04 00:43:13;;;;;;;;;;;21.90;59.60;;;;;;5068714;28;20333;-75
2023/04/04 00:45:39;;;;;;;;;;;21.90;59.70;;;;;;5066750;28;19927;-75
2023/04/04 00:48:05;;;;;;;;;;;21.80;59.30;;;;;;5049683;28;19936;-75
2023/04/04 00:50:31;;;;;;;;;;;21.90;59.70;;;;;;5054724;28;19989;-75
2023/04/04 00:52:57;;;;;;;;;;;21.90;59.30;;;;;;5035660;28;20352;-74
2023/04/04 00:55:24;;;;;;;;;;;21.90;59.70;;;;;;5071782;28;19909;-75
2023/04/04 00:57:50;;;;;;;;;;;21.90;59.80;;;;;;5039669;28;19961;-75
2023/04/04 01:00:16;;;;;;;;;;;21.80;59.60;;;;;;5060892;28;19908;-75
2023/04/04 01:02:42;;;;;;;;;;;21.90;59.80;;;;;;5055524;28;19916;-75
2023/04/04 01:05:10;;;;;;;;;;;21.80;59.70;;;;;;5073346;28;19912;-75
2023/04/04 01:07:36;;;;;;;;;;;21.80;59.60;;;;;;5070641;28;20019;-74
2023/04/04 01:10:05;;;;;;;;;;;21.70;60.00;;;;;;5017752;28;19908;-74
2023/04/04 01:12:33;;;;;;;;;;;21.70;60.20;;;;;;5038699;28;19981;-74
2023/04/04 01:14:59;;;;;;;;;;;21.70;60.10;;;;;;5079136;28;19920;-75
2023/04/04 01:17:26;;;;;;;;;;;21.50;59.80;;;;;;5093406;28;19912;-75
2023/04/04 01:20:00;;;;;;;;;;;21.50;59.60;;;;;;5090285;28;19908;-75
2023/04/04 01:22:28;;;;;;;;;;;21.50;59.60;;;;;;5089562;28;19962;-75
2023/04/04 01:24:55;;;;;;;;;;;21.40;60.00;;;;;;5079497;28;20311;-74
2023/04/04 01:27:22;;;;;;;;;;;21.60;59.80;;;;;;5085591;28;19931;-75
2023/04/04 01:29:54;;;;;;;;;;;21.60;60.10;;;;;;5089804;28;19912;-75
2023/04/04 01:32:40;;;;;;;;;;;21.50;58.10;;;;;;5091580;28;19924;-74
2023/04/04 01:35:20;;;;;;;;;;;21.60;59.80;;;;;;5089703;28;19916;-75
2023/04/04 01:37:46;;;;;;;;;;;21.60;58.90;;;;;;5075215;28;19993;-75
2023/04/04 01:40:20;;;;;;;;;;;21.60;60.20;;;;;;5055389;28;19912;-75
2023/04/04 01:42:48;;;;;;;;;;;21.70;58.30;;;;;;5058598;28;19936;-75
2023/04/04 01:45:14;;;;;;;;;;;21.70;59.70;;;;;;5048764;28;20322;-75
2023/04/04 01:47:42;;;;;;;;;;;21.70;60.20;;;;;;5037916;28;19929;-75
2023/04/04 01:50:13;;;;;;;;;;;21.70;58.50;;;;;;5033490;28;20030;-75
2023/04/04 01:52:39;;;;;;;;;;;21.70;59.50;;;;;;5033228;28;19995;-75
2023/04/04 01:55:05;;;;;;;;;;;21.70;59.80;;;;;;5044120;28;19908;-75
2023/04/04 01:57:31;;;;;;;;;;;21.70;59.30;;;;;;5022905;28;19908;-75
2023/04/04 01:59:57;;;;;;;;;;;21.60;59.80;;;;;;5066282;28;20406;-75
2023/04/04 02:02:24;;;;;;;;;;;21.60;58.90;;;;;;5036075;28;20280;-75
2023/04/04 02:04:51;;;;;;;;;;;21.70;59.80;;;;;;5046436;28;19912;-75
2023/04/04 02:07:17;;;;;;;;;;;21.60;60.10;;;;;;5050188;28;19916;-75
2023/04/04 02:09:44;;;;;;;;;;;21.50;59.80;;;;;;5053941;28;20030;-75
2023/04/04 02:12:10;;;;;;;;;;;21.50;59.60;;;;;;5069938;28;20364;-75
2023/04/04 02:14:36;;;;;;;;;;;21.40;59.80;;;;;;5072548;28;19916;-75
2023/04/04 02:17:03;;;;;;;;;;;21.50;60.10;;;;;;5092260;28;19914;-75
2023/04/04 02:19:30;;;;;;;;;;;21.50;60.10;;;;;;5092102;28;20336;-75
2023/04/04 02:21:56;;;;;;;;;;;21.50;60.30;;;;;;5091652;28;20279;-75
2023/04/04 02:24:22;;;;;;;;;;;21.50;59.90;;;;;;5081264;28;19909;-75
2023/04/04 02:26:48;;;;;;;;;;;21.40;59.80;;;;;;5090544;28;19911;-75
2023/04/04 02:29:15;;;;;;;;;;;21.50;59.70;;;;;;5074353;28;20015;-75
2023/04/04 02:31:42;;;;;;;;;;;21.40;60.50;;;;;;5086946;28;19917;-75
2023/04/04 02:34:08;;;;;;;;;;;21.40;60.80;;;;;;5070325;28;19908;-75
2023/04/04 02:36:34;;;;;;;;;;;21.50;60.40;;;;;;5070395;28;20574;-74
2023/04/04 02:39:01;;;;;;;;;;;21.50;60.00;;;;;;5078167;28;19916;-75
2023/04/04 02:41:29;;;;;;;;;;;21.60;60.00;;;;;;5074103;28;19998;-75
2023/04/04 02:43:56;;;;;;;;;;;21.70;59.00;;;;;;5074653;28;19915;-75
2023/04/04 02:46:22;;;;;;;;;;;21.60;60.00;;;;;;5068909;28;19915;-75
2023/04/04 02:48:55;;;;;;;;;;;21.70;59.80;;;;;;5071133;28;19918;-75
2023/04/04 02:51:21;;;;;;;;;;;21.60;60.00;;;;;;5070015;28;19916;-74
2023/04/04 02:53:47;;;;;;;;;;;21.70;58.50;;;;;;5070318;28;20280;-75
2023/04/04 02:56:24;;;;;;;;;;;21.60;58.50;;;;;;5074557;28;20383;-75
2023/04/04 02:58:50;;;;;;;;;;;21.50;59.80;;;;;;5070018;28;20394;-75
2023/04/04 03:01:16;;;;;;;;;;;21.50;59.60;;;;;;5085224;28;19908;-75
2023/04/04 03:03:42;;;;;;;;;;;21.50;57.20;;;;;;5091622;28;19951;-75
2023/04/04 03:06:08;;;;;;;;;;;21.40;59.70;;;;;;5088687;28;19954;-75
2023/04/04 03:08:34;;;;;;;;;;;21.40;58.90;;;;;;5080931;28;19908;-75
2023/04/04 03:11:01;;;;;;;;;;;21.40;59.60;;;;;;5084046;28;19946;-75
2023/04/04 03:13:27;;;;;;;;;;;21.40;59.90;;;;;;5085852;28;19916;-74
2023/04/04 03:16:05;;;;;;;;;;;21.20;59.90;;;;;;5048501;28;19912;-74
2023/04/04 03:18:43;;;;;;;;;;;21.40;60.30;;;;;;5053196;28;20003;-74
2023/04/04 03:21:10;;;;;;;;;;;21.40;60.10;;;;;;5036652;28;19912;-74
2023/04/04 03:23:35;;;;;;;;;;;21.30;60.20;;;;;;5066533;28;19908;-74
2023/04/04 03:26:02;;;;;;;;;;;21.30;60.40;;;;;;5046783;28;20311;-75
2023/04/04 03:28:28;;;;;;;;;;;21.30;60.20;;;;;;5048161;28;19908;-75
2023/04/04 03:30:54;;;;;;;;;;;21.40;60.30;;;;;;5034755;28;19917;-75
2023/04/04 03:33:21;;;;;;;;;;;21.30;60.30;;;;;;5050996;28;20415;-75
2023/04/04 03:35:47;;;;;;;;;;;21.40;60.00;;;;;;5034572;28;19909;-75
2023/04/04 03:38:13;;;;;;;;;;;21.40;60.00;;;;;;5051171;28;20003;-75
2023/04/04 03:40:40;;;;;;;;;;;21.30;60.00;;;;;;5044891;28;19943;-75
2023/04/04 03:43:11;;;;;;;;;;;21.40;60.10;;;;;;5028746;28;19913;-75
2023/04/04 03:45:37;;;;;;;;;;;21.30;60.00;;;;;;5044017;28;19919;-75
2023/04/04 03:48:03;;;;;;;;;;;21.20;60.10;;;;;;5047395;28;19952;-75
2023/04/04 03:50:30;;;;;;;;;;;21.30;59.50;;;;;;5032489;28;19943;-75
2023/04/04 03:52:57;;;;;;;;;;;21.40;59.90;;;;;;5033272;28;19970;-75
2023/04/04 03:55:25;;;;;;;;;;;21.30;59.70;;;;;;5060800;28;19947;-74
2023/04/04 03:57:51;;;;;;;;;;;21.30;59.90;;;;;;5039090;28;19916;-75
2023/04/04 04:00:19;;;;;;;;;;;21.40;58.50;;;;;;5033492;28;19909;-75
2023/04/04 04:02:45;;;;;;;;;;;21.30;59.30;;;;;;5050604;28;19912;-75
2023/04/04 04:05:11;;;;;;;;;;;21.20;59.40;;;;;;5032838;28;20390;-75
2023/04/04 04:07:37;;;;;;;;;;;21.20;60.10;;;;;;5052661;28;20280;-75
2023/04/04 04:10:04;;;;;;;;;;;21.30;59.90;;;;;;5061966;28;19912;-75
2023/04/04 04:12:30;;;;;;;;;;;21.20;59.80;;;;;;5036393;28;20022;-75
2023/04/04 04:14:56;;;;;;;;;;;21.10;59.60;;;;;;5058967;28;19920;-75
2023/04/04 04:17:21;;;;;;;;;;;21.30;60.30;;;;;;5056523;28;19913;-75
2023/04/04 04:19:48;;;;;;;;;;;21.20;60.10;;;;;;5074001;28;20372;-75
2023/04/04 04:22:15;;;;;;;;;;;21.10;60.50;;;;;;5054921;28;20395;-75
2023/04/04 04:24:42;;;;;;;;;;;21.20;60.10;;;;;;5042365;28;19998;-74
2023/04/04 04:27:08;;;;;;;;;;;21.10;60.70;;;;;;5036209;28;19974;-74
2023/04/04 04:29:35;;;;;;;;;;;21.20;60.10;;;;;;5049544;28;19932;-75
2023/04/04 04:32:02;;;;;;;;;;;21.10;59.90;;;;;;5053420;28;19950;-74
2023/04/04 04:34:31;;;;;;;;;;;21.10;60.00;;;;;;5045749;28;19908;-75
2023/04/04 04:36:59;;;;;;;;;;;21.10;60.10;;;;;;5039685;28;19912;-75
2023/04/04 04:39:30;;;;;;;;;;;21.10;60.00;;;;;;5040028;28;19912;-75
2023/04/04 04:42:25;;;;;;;;;;;21.00;60.10;;;;;;4985929;28;19925;-75
2023/04/04 04:44:55;;;;;;;;;;;21.00;60.00;;;;;;4975146;28;19944;-75
2023/04/04 04:47:22;;;;;;;;;;;21.00;60.40;;;;;;4991578;28;19968;-75
2023/04/04 04:49:48;;;;;;;;;;;21.00;60.30;;;;;;4974903;28;19932;-75
2023/04/04 04:52:19;;;;;;;;;;;21.00;60.30;;;;;;4952718;28;19974;-75
2023/04/04 04:54:45;;;;;;;;;;;20.80;60.40;;;;;;4935689;29;19918;-75
2023/04/04 04:57:12;;;;;;;;;;;20.80;60.60;;;;;;4948839;28;20090;-75
2023/04/04 04:59:42;;;;;;;;;;;20.90;60.80;;;;;;4951398;28;20310;-75
2023/04/04 05:02:09;;;;;;;;;;;20.70;60.70;;;;;;4950824;28;19970;-75
2023/04/04 05:04:43;;;;;;;;;;;20.70;60.70;;;;;;4936424;28;19922;-75
2023/04/04 05:07:13;;;;;;;;;;;20.70;60.60;;;;;;4933780;29;20389;-75
2023/04/04 05:09:42;;;;;;;;;;;20.70;61.10;;;;;;4950375;28;20481;-75
2023/04/04 05:12:09;;;;;;;;;;;20.80;60.90;;;;;;4951034;28;20101;-74
2023/04/04 05:14:39;;;;;;;;;;;20.70;61.10;;;;;;4973854;28;19975;-75
2023/04/04 05:17:06;;;;;;;;;;;20.80;61.00;;;;;;4991255;28;19910;-72
2023/04/04 05:19:33;;;;;;;;;;;20.90;60.30;;;;;;5024116;28;20304;-71
2023/04/04 05:22:00;;;;;;;;;;;20.90;60.40;;;;;;5041253;28;20567;-72
2023/04/04 05:24:34;;;;;;;;;;;20.90;60.40;;;;;;5041012;28;19913;-75
2023/04/04 05:27:01;;;;;;;;;;;20.80;58.90;;;;;;5035155;28;19909;-75
2023/04/04 05:29:32;;;;;;;;;;;21.00;58.10;;;;;;5028942;28;19913;-72
2023/04/04 05:32:00;;;;;;;;;;;21.30;57.80;;;;;;5027400;28;20007;-72
2023/04/04 05:34:27;;;;;;;;;;;21.40;57.80;;;;;;5029427;28;19924;-71
2023/04/04 05:36:55;;;;;;;;;;;21.30;57.50;;;;;;5019431;28;19917;-73
2023/04/04 05:39:21;;;;;;;;;;;21.60;47.30;;;;;;5016852;28;19909;-73
2023/04/04 05:41:58;;;;;;;;;;;21.50;46.40;;;;;;4981207;28;19916;-73
2023/04/04 05:44:26;;;;;;;;;;;21.40;47.40;;;;;;5023983;28;20450;-73
2023/04/04 05:46:52;;;;;;;;;;;21.40;46.70;;;;;;5004878;28;20332;-73
2023/04/04 05:49:18;;;;;;;;;;;21.40;47.40;;;;;;5032186;28;20572;-73
2023/04/04 05:51:55;;;;;;;;;;;21.50;47.90;;;;;;5010200;28;19917;-73
2023/04/04 05:54:22;;;;;;;;;;;21.50;45.70;;;;;;5023152;28;19931;-73
2023/04/04 05:56:48;;;;;;;;;;;21.40;47.50;;;;;;5046947;28;19908;-77
2023/04/04 05:59:35;;;;;;;;;;;21.40;48.20;;;;;;5060975;28;19912;-75
2023/04/04 06:02:03;;;;;;;;;;;21.60;59.00;;;;;;5045274;28;19952;-75
2023/04/04 06:04:30;;;;;;;;;;;21.90;62.40;;;;;;5041775;28;19916;-77
2023/04/04 06:06:59;;;;;;;;;;;22.00;61.90;;;;;;5057738;28;19916;-76
2023/04/04 06:09:26;;;;;;;;;;;22.00;58.40;;;;;;5024815;28;19918;-76
2023/04/04 06:11:53;;;;;;;;;;;22.20;59.90;;;;;;5015133;28;19925;-75
2023/04/04 06:14:20;;;;;;;;;;;22.20;58.00;;;;;;5013527;28;20373;-76
2023/04/04 06:16:47;;;;;;;;;;;22.20;57.50;;;;;;5038596;28;19920;-76
2023/04/04 06:19:15;;;;;;;;;;;22.20;57.10;;;;;;5036486;28;19933;-76
2023/04/04 06:21:41;;;;;;;;;;;22.10;56.30;;;;;;5034971;28;20565;-76
2023/04/04 06:24:07;;;;;;;;;;;22.20;56.50;;;;;;5022888;28;20392;-76
2023/04/04 06:26:33;;;;;;;;;;;22.10;56.70;;;;;;5031762;28;19999;-75
2023/04/04 06:29:02;;;;;;;;;;;22.30;56.90;;;;;;5026972;28;19991;-73
2023/04/04 06:31:33;;;;;;;;;;;22.30;57.70;;;;;;5031797;28;19917;-74
2023/04/04 06:34:08;;;;;;;;;;;22.40;56.00;;;;;;5032132;28;20343;-73
2023/04/04 06:36:47;;;;;;;;;;;22.50;54.20;;;;;;5030985;28;20929;-74
2023/04/04 06:39:13;;;;;;;;;;;22.60;53.60;;;;;;5047872;28;19955;-73
2023/04/04 06:41:40;;;;;;;;;;;22.70;53.20;;;;;;5067204;28;19908;-78
2023/04/04 06:44:06;;;;;;;;;;;22.80;53.70;;;;;;5070216;28;19935;-75
2023/04/04 06:46:32;;;;;;;;;;;22.70;53.00;;;;;;5069922;28;20428;-76
2023/04/04 06:48:58;;;;;;;;;;;22.80;51.50;;;;;;5069439;28;19913;-76
2023/04/04 06:51:24;;;;;;;;;;;22.80;51.50;;;;;;5068963;28;20105;-78
2023/04/04 06:53:50;;;;;;;;;;;22.80;50.50;;;;;;5070408;28;19995;-74
2023/04/04 06:56:16;;;;;;;;;;;22.60;51.50;;;;;;5072901;28;19970;-75
2023/04/04 06:58:42;;;;;;;;;;;22.20;53.70;;;;;;5073080;28;19912;-74
2023/04/04 07:01:08;;;;;;;;;;;22.10;54.20;;;;;;5069589;28;19980;-79
2023/04/04 07:03:34;;;;;;;;;;;22.00;54.30;;;;;;5071051;28;19912;-75
2023/04/04 07:06:05;;;;;;;;;;;21.90;55.90;;;;;;5071812;28;19927;-77
2023/04/04 07:08:32;;;;;;;;;;;21.70;56.50;;;;;;5072688;28;19958;-75
2023/04/04 07:10:59;;;;;;;;;;;21.60;57.80;;;;;;5087068;28;20382;-77
2023/04/04 07:13:25;;;;;;;;;;;21.70;58.50;;;;;;5077057;28;19938;-76
2023/04/04 07:15:51;;;;;;;;;;;21.50;58.80;;;;;;5057164;28;19966;-76
2023/04/04 07:18:17;;;;;;;;;;;21.40;58.10;;;;;;5054489;28;19920;-77
2023/04/04 07:20:45;;;;;;;;;;;21.50;59.80;;;;;;5039189;28;19909;-74
2023/04/04 07:23:11;;;;;;;;;;;21.50;59.90;;;;;;5063232;28;20000;-79
2023/04/04 07:25:37;;;;;;;;;;;21.50;60.10;;;;;;5061585;28;19962;-79
2023/04/04 07:28:03;;;;;;;;;;;21.40;60.40;;;;;;5056807;28;19909;-78
2023/04/04 07:30:31;;;;;;;;;;;21.40;60.70;;;;;;5045129;28;20334;-78
2023/04/04 07:33:01;;;;;;;;;;;21.30;60.50;;;;;;5041852;28;20283;-77
2023/04/04 07:35:27;;;;;;;;;;;21.40;60.60;;;;;;5039423;28;20304;-77
2023/04/04 07:37:53;;;;;;;;;;;21.30;60.60;;;;;;5055326;28;19908;-78
2023/04/04 07:40:19;;;;;;;;;;;21.20;60.10;;;;;;5054472;28;19919;-77
2023/04/04 07:42:45;;;;;;;;;;;21.30;61.00;;;;;;5062525;28;19978;-76
2023/04/04 07:45:12;;;;;;;;;;;21.20;61.40;;;;;;5062152;28;19943;-76
2023/04/04 07:47:41;;;;;;;;;;;21.10;61.20;;;;;;5068389;28;19916;-76
2023/04/04 07:50:07;;;;;;;;;;;21.10;61.80;;;;;;5057277;28;19908;-78
2023/04/04 07:52:33;;;;;;;;;;;21.00;61.90;;;;;;5066982;28;19920;-79
2023/04/04 07:55:00;;;;;;;;;;;21.00;61.50;;;;;;5041732;28;19997;-77
2023/04/04 07:57:26;;;;;;;;;;;21.00;62.50;;;;;;5053295;28;19915;-76
2023/04/04 07:59:52;;;;;;;;;;;21.10;62.90;;;;;;5065143;28;19908;-78
2023/04/04 08:02:18;;;;;;;;;;;21.00;63.20;;;;;;5071578;28;19908;-75
2023/04/04 08:04:44;;;;;;;;;;;20.90;63.10;;;;;;5070679;28;19913;-76
2023/04/04 08:07:10;;;;;;;;;;;20.90;63.40;;;;;;5061776;28;19966;-72
2023/04/04 08:09:36;;;;;;;;;;;20.90;63.50;;;;;;5058816;28;20591;-76
2023/04/04 08:12:02;;;;;;;;;;;20.80;64.00;;;;;;5059255;28;19921;-78
2023/04/04 08:14:28;;;;;;;;;;;20.90;63.50;;;;;;5056246;28;20059;-80
2023/04/04 08:16:54;;;;;;;;;;;20.90;64.50;;;;;;5058334;28;20003;-78
2023/04/04 08:19:20;;;;;;;;;;;20.90;63.30;;;;;;5047069;28;19909;-77
2023/04/04 08:21:46;;;;;;;;;;;20.80;62.90;;;;;;5060535;28;19912;-76
2023/04/04 08:24:11;;;;;;;;;;;21.00;63.30;;;;;;5060382;28;20361;-78
2023/04/04 08:26:37;;;;;;;;;;;21.10;62.20;;;;;;5057217;28;19912;-74
2023/04/04 08:29:03;;;;;;;;;;;21.30;60.60;;;;;;5053897;28;19916;-79
2023/04/04 08:31:29;;;;;;;;;;;21.30;60.80;;;;;;5060780;28;19932;-77
2023/04/04 08:33:55;;;;;;;;;;;21.30;60.50;;;;;;5057075;28;20031;-76
2023/04/04 08:36:21;;;;;;;;;;;21.30;60.00;;;;;;5056051;28;19917;-79
2023/04/04 08:38:47;;;;;;;;;;;21.40;60.00;;;;;;5061951;28;19912;-79
2023/04/04 08:41:14;;;;;;;;;;;21.40;60.20;;;;;;5050684;28;19908;-78
2023/04/04 08:43:43;;;;;;;;;;;21.40;60.10;;;;;;5062965;28;20475;-77
2023/04/04 08:46:10;;;;;;;;;;;21.40;59.80;;;;;;5052231;28;19916;-78
2023/04/04 08:48:36;;;;;;;;;;;21.40;60.00;;;;;;5059079;28;19909;-77
2023/04/04 08:51:03;;;;;;;;;;;21.30;60.50;;;;;;5053064;28;20273;-74
2023/04/04 08:53:31;;;;;;;;;;;21.30;60.70;;;;;;5034779;28;19954;-77
2023/04/04 08:55:58;;;;;;;;;;;21.40;60.50;;;;;;5057217;28;19928;-76
2023/04/04 08:58:25;;;;;;;;;;;21.30;60.80;;;;;;5065739;28;20392;-81
2023/04/04 09:00:54;;;;;;;;;;;21.30;61.60;;;;;;5052307;28;19956;-76
2023/04/04 09:03:25;;;;;;;;;;;21.20;61.60;;;;;;5055700;28;20368;-75
2023/04/04 09:05:52;;;;;;;;;;;21.20;61.50;;;;;;5055020;28;19959;-74
2023/04/04 09:08:18;;;;;;;;;;;21.20;59.40;;;;;;5037333;28;20019;-73
2023/04/04 09:10:44;;;;;;;;;;;21.30;65.00;;;;;;5054905;28;19909;-74
2023/04/04 09:13:10;;;;;;;;;;;21.30;68.60;;;;;;5058468;28;19982;-72
2023/04/04 09:15:37;;;;;;;;;;;21.20;67.60;;;;;;5054339;28;20384;-76
2023/04/04 09:18:03;;;;;;;;;;;21.20;69.40;;;;;;5054916;28;20300;-75
2023/04/04 09:20:32;;;;;;;;;;;21.30;67.00;;;;;;5043077;28;19908;-72
2023/04/04 09:22:58;;;;;;;;;;;21.10;65.50;;;;;;5053706;28;20352;-78
2023/04/04 09:25:24;;;;;;;;;;;21.20;65.20;;;;;;5052083;28;19920;-73
2023/04/04 09:27:52;;;;;;;;;;;21.00;65.30;;;;;;5054932;28;20417;-73
2023/04/04 09:30:18;;;;;;;;;;;21.00;64.50;;;;;;5034618;28;20288;-79
2023/04/04 09:32:44;;;;;;;;;;;21.00;65.30;;;;;;5056176;28;19956;-75
2023/04/04 09:35:12;;;;;;;;;;;20.90;55.50;;;;;;5055453;28;20412;-74
2023/04/04 09:37:40;;;;;;;;;;;20.60;57.00;;;;;;5057919;28;19909;-74
2023/04/04 09:40:08;;;;;;;;;;;20.60;66.90;;;;;;5059852;28;20326;-77
2023/04/04 09:42:34;;;;;;;;;;;20.70;66.50;;;;;;5058619;28;20300;-75
2023/04/04 09:45:01;;;;;;;;;;;20.60;65.70;;;;;;5021525;28;19994;-73
2023/04/04 09:47:27;;;;;;;;;;;20.80;65.10;;;;;;5016168;28;20019;-71
2023/04/04 09:49:56;;;;;;;;;;;20.70;65.40;;;;;;5051481;28;19913;-74
2023/04/04 09:52:22;;;;;;;;;;;21.10;59.40;;;;;;5045541;28;19955;-72
2023/04/04 09:54:55;;;;;;;;;;;21.60;65.30;;;;;;5053477;28;20266;-70
2023/04/04 09:57:21;;;;;;;;;;;22.00;50.30;;;;;;5065831;28;19920;-72
2023/04/04 09:59:47;;;;;;;;;;;22.00;48.30;;;;;;5068847;28;19912;-71
2023/04/04 10:02:13;;;;;;;;;;;21.90;46.90;;;;;;5055029;28;19912;-76
2023/04/04 10:04:41;;;;;;;;;;;21.90;46.90;;;;;;5057303;28;20287;-72
2023/04/04 10:07:12;;;;;;;;;;;22.00;48.40;;;;;;5034795;28;20319;-74
2023/04/04 10:09:38;;;;;;;;;;;22.10;52.70;;;;;;5054507;28;19913;-73
2023/04/04 10:12:08;;;;;;;;;;;22.40;49.70;;;;;;5051878;28;19925;-73
2023/04/04 10:14:34;;;;;;;;;;;22.30;50.70;;;;;;5052755;28;19924;-74
2023/04/04 10:17:05;;;;;;;;;;;22.50;51.70;;;;;;5050753;28;19916;-75
2023/04/04 10:19:31;;;;;;;;;;;22.70;55.40;;;;;;5038274;28;19912;-72
2023/04/04 10:21:58;;;;;;;;;;;22.90;50.20;;;;;;5054767;28;19917;-72
2023/04/04 10:24:24;;;;;;;;;;;22.70;46.60;;;;;;5033724;28;19912;-72
2023/04/04 10:26:50;;;;;;;;;;;22.70;45.60;;;;;;5051284;28;19918;-72
2023/04/04 10:29:16;;;;;;;;;;;22.60;45.00;;;;;;5057439;28;19908;-74
2023/04/04 10:31:43;;;;;;;;;;;22.60;45.80;;;;;;5060006;28;19917;-72
2023/04/04 10:34:31;;;;;;;;;;;22.90;58.60;;;;;;5033541;28;20314;-74
2023/04/04 10:37:05;;;;;;;;;;;22.90;58.90;;;;;;5040375;28;19908;-75
2023/04/04 10:39:41;;;;;;;;;;;22.90;60.00;;;;;;5051564;28;20007;-74
2023/04/04 10:42:09;;;;;;;;;;;22.60;60.20;;;;;;5034427;28;19912;-73
2023/04/04 10:44:39;;;;;;;;;;;22.70;61.40;;;;;;5051460;28;19916;-72
2023/04/04 10:47:20;;;;;;;;;;;22.60;61.70;;;;;;5051278;28;20369;-74
2023/04/04 10:49:47;;;;;;;;;;;22.30;62.40;;;;;;5050755;28;20011;-73
2023/04/04 10:52:14;;;;;;;;;;;22.20;63.10;;;;;;5051163;28;19917;-76
2023/04/04 10:54:41;;;;;;;;;;;22.20;64.60;;;;;;5054463;28;19912;-73
2023/04/04 10:57:07;;;;;;;;;;;22.30;65.00;;;;;;5050864;28;20083;-75
2023/04/04 10:59:32;;;;;;;;;;;22.00;65.20;;;;;;5051197;28;19916;-74
2023/04/04 11:01:59;;;;;;;;;;;22.00;65.10;;;;;;5033647;28;19908;-74
2023/04/04 11:04:30;;;;;;;;;;;22.00;65.90;;;;;;5050770;28;19935;-75
2023/04/04 11:07:05;;;;;;;;;;;22.10;65.80;;;;;;5059147;28;19908;-74
2023/04/04 11:09:50;;;;;;;;;;;22.10;65.10;;;;;;5067892;28;20019;-76
2023/04/04 11:12:25;;;;;;;;;;;22.00;64.20;;;;;;5062135;28;19921;-75
2023/04/04 11:14:54;;;;;;;;;;;21.90;65.30;;;;;;5050837;28;19917;-76
2023/04/04 11:17:39;;;;;;;;;;;21.80;65.30;;;;;;5050397;28;19924;-75
2023/04/04 11:20:06;;;;;;;;;;;22.00;65.50;;;;;;5054791;28;20331;-75
2023/04/04 11:22:35;;;;;;;;;;;22.00;65.30;;;;;;5055434;28;20328;-75
2023/04/04 11:25:33;;;;;;;;;;;21.90;63.20;;;;;;5055059;28;19919;-74
2023/04/04 11:28:11;;;;;;;;;;;21.80;65.20;;;;;;4949317;28;19910;-75
2023/04/04 11:30:43;;;;;;;;;;;21.90;64.80;;;;;;4954231;29;19984;-75
2023/04/04 11:33:10;;;;;;;;;;;22.00;65.10;;;;;;4952201;28;19914;-74
2023/04/04 11:35:39;;;;;;;;;;;21.90;65.20;;;;;;4954107;29;19910;-73
2023/04/04 11:38:12;;;;;;;;;;;22.00;65.60;;;;;;4960213;28;19934;-73
2023/04/04 11:40:40;;;;;;;;;;;21.90;61.10;;;;;;4969963;28;19910;-72
2023/04/04 11:43:09;;;;;;;;;;;21.80;64.80;;;;;;4969550;28;19918;-71
2023/04/04 11:45:36;;;;;;;;;;;21.90;65.10;;;;;;4966714;28;20048;-72
2023/04/04 11:48:03;;;;;;;;;;;21.80;65.30;;;;;;4941264;28;20061;-73
2023/04/04 11:50:37;;;;;;;;;;;21.70;64.70;;;;;;4957069;28;19962;-72
2023/04/04 11:53:07;;;;;;;;;;;21.70;63.10;;;;;;4954146;29;19918;-72
2023/04/04 11:55:37;;;;;;;;;;;21.60;64.30;;;;;;4964407;28;19913;-74
2023/04/04 11:58:10;;;;;;;;;;;21.50;64.60;;;;;;4957432;28;20558;-74
2023/04/04 12:00:37;;;;;;;;;;;21.40;64.50;;;;;;4959623;28;19997;-75
2023/04/04 12:03:10;;;;;;;;;;;21.40;65.30;;;;;;4998701;28;19931;-74
2023/04/04 12:05:37;;;;;;;;;;;21.50;65.40;;;;;;5062643;28;19952;-75
2023/04/04 12:08:03;;;;;;;;;;;21.60;62.20;;;;;;5041657;28;20357;-74
2023/04/04 12:10:30;;;;;;;;;;;21.50;63.60;;;;;;5053848;28;19991;-75
2023/04/04 12:12:57;;;;;;;;;;;21.60;64.30;;;;;;5036336;28;19956;-75
2023/04/04 12:15:23;;;;;;;;;;;21.60;59.00;;;;;;5067365;28;20344;-74
2023/04/04 12:17:50;;;;;;;;;;;21.70;63.60;;;;;;5082459;28;19912;-74
2023/04/04 12:20:16;;;;;;;;;;;21.70;60.70;;;;;;5093079;28;20007;-74
2023/04/04 12:22:43;;;;;;;;;;;21.80;62.30;;;;;;5083189;28;19912;-75
2023/04/04 12:25:09;;;;;;;;;;;21.80;63.30;;;;;;5073819;28;19987;-74
2023/04/04 12:27:35;;;;;;;;;;;21.90;63.60;;;;;;5072577;28;19961;-74
2023/04/04 12:30:03;;;;;;;;;;;21.80;63.60;;;;;;5087402;28;19912;-75
2023/04/04 12:32:29;;;;;;;;;;;21.80;63.40;;;;;;5073532;28;19960;-75
2023/04/04 12:34:59;;;;;;;;;;;21.80;63.40;;;;;;5087200;28;19943;-74
2023/04/04 12:37:27;;;;;;;;;;;21.70;63.90;;;;;;5077051;28;19912;-75
2023/04/04 12:39:54;;;;;;;;;;;21.70;63.70;;;;;;5073989;28;20291;-74
2023/04/04 12:42:21;;;;;;;;;;;21.60;63.60;;;;;;5072561;28;20410;-74
2023/04/04 12:44:49;;;;;;;;;;;21.60;63.50;;;;;;5073642;28;20026;-75
2023/04/04 12:47:16;;;;;;;;;;;21.60;63.50;;;;;;5090651;28;19914;-74
2023/04/04 12:49:43;;;;;;;;;;;21.60;64.10;;;;;;5093097;28;19911;-74
2023/04/04 12:52:19;;;;;;;;;;;21.60;63.50;;;;;;5093811;28;19916;-75
2023/04/04 12:54:45;;;;;;;;;;;21.60;62.90;;;;;;5088173;28;19933;-74
2023/04/04 12:57:16;;;;;;;;;;;21.60;63.40;;;;;;5093871;28;20022;-74
2023/04/04 12:59:44;;;;;;;;;;;21.60;63.40;;;;;;5082229;28;20292;-74
2023/04/04 13:02:11;;;;;;;;;;;21.70;63.30;;;;;;5082806;28;20279;-74
2023/04/04 13:04:38;;;;;;;;;;;21.70;62.90;;;;;;5081271;28;20248;-74
2023/04/04 13:07:04;;;;;;;;;;;21.70;61.80;;;;;;5081971;28;20435;-74
2023/04/04 13:09:30;;;;;;;;;;;21.70;63.00;;;;;;5077419;28;20299;-74
2023/04/04 13:12:03;;;;;;;;;;;21.80;62.40;;;;;;5073252;28;19931;-74
2023/04/04 13:14:48;;;;;;;;;;;21.70;62.70;;;;;;5062972;28;19923;-74
2023/04/04 13:17:14;;;;;;;;;;;21.80;60.80;;;;;;5059694;28;19908;-74
2023/04/04 13:19:40;;;;;;;;;;;21.70;62.20;;;;;;5021748;28;19908;-74
2023/04/04 13:22:07;;;;;;;;;;;21.80;62.70;;;;;;5073102;28;19912;-74
2023/04/04 13:24:33;;;;;;;;;;;21.80;61.00;;;;;;5060401;28;19913;-74
2023/04/04 13:26:59;;;;;;;;;;;21.50;61.00;;;;;;5052846;28;20011;-74
2023/04/04 13:29:25;;;;;;;;;;;21.60;60.10;;;;;;5052176;28;19962;-74
2023/04/04 13:31:52;;;;;;;;;;;21.60;62.30;;;;;;5052132;28;19916;-74
2023/04/04 13:34:20;;;;;;;;;;;21.70;62.40;;;;;;5054956;28;19935;-74
2023/04/04 13:36:46;;;;;;;;;;;21.60;61.80;;;;;;5052438;28;19908;-74
2023/04/04 13:39:12;;;;;;;;;;;21.70;57.30;;;;;;5051416;28;20058;-74
2023/04/04 13:41:38;;;;;;;;;;;21.60;62.50;;;;;;5054405;28;19909;-74
2023/04/04 13:44:03;;;;;;;;;;;21.80;61.90;;;;;;5051947;28;19917;-74
2023/04/04 13:46:29;;;;;;;;;;;21.80;62.40;;;;;;5065739;28;20373;-75
2023/04/04 13:48:55;;;;;;;;;;;21.90;61.10;;;;;;5058654;28;19915;-74
2023/04/04 13:51:23;;;;;;;;;;;21.90;58.40;;;;;;5056914;28;20015;-74
2023/04/04 13:53:49;;;;;;;;;;;21.90;59.60;;;;;;5052725;28;19912;-74
2023/04/04 13:56:15;;;;;;;;;;;22.10;62.10;;;;;;5032819;28;19935;-76
2023/04/04 13:58:41;;;;;;;;;;;22.10;61.60;;;;;;5052009;28;19909;-73
2023/04/04 14:01:08;;;;;;;;;;;22.10;62.10;;;;;;5053394;28;20403;-76
2023/04/04 14:03:34;;;;;;;;;;;22.10;63.70;;;;;;5035561;28;19928;-73
2023/04/04 14:06:00;;;;;;;;;;;22.30;65.20;;;;;;5055393;28;20585;-74
2023/04/04 14:08:25;;;;;;;;;;;22.20;60.40;;;;;;5061157;28;19908;-76
2023/04/04 14:10:51;;;;;;;;;;;22.10;63.10;;;;;;5050715;28;19913;-76
2023/04/04 14:13:18;;;;;;;;;;;22.00;62.20;;;;;;5039930;28;19913;-75
2023/04/04 14:15:45;;;;;;;;;;;22.10;62.20;;;;;;5070242;28;19935;-77
2023/04/04 14:18:14;;;;;;;;;;;22.00;61.20;;;;;;5069676;28;19942;-75
2023/04/04 14:20:40;;;;;;;;;;;22.10;59.90;;;;;;5056704;28;19920;-76